createdAt,value
2022-08-12T00:02:42.220Z,56.20
2022-08-12T00:06:05.124Z,55.92
2022-08-12T00:09:26.847Z,55.67
2022-08-12T00:12:48.900Z,55.63
2022-08-12T00:16:10.847Z,55.33
2022-08-12T00:19:32.732Z,55.66
2022-08-12T00:22:59.207Z,55.69
2022-08-12T00:26:24.414Z,55.80
2022-08-12T00:29:48.124Z,55.87
2022-08-12T00:33:11.629Z,56.24
2022-08-12T00:36:36.130Z,56.56
2022-08-12T00:39:58.932Z,56.92
2022-08-12T00:43:02.794Z,57.04
2022-08-12T00:46:37.881Z,57.52
2022-08-12T00:49:41.949Z,57.67
2022-08-12T00:52:49.781Z,58.25
2022-08-12T00:55:56.961Z,58.58
2022-08-12T00:59:03.249Z,59.04
2022-08-12T01:02:12.152Z,59.30
2022-08-12T01:05:37.236Z,59.58
2022-08-12T01:08:59.805Z,59.93
2022-08-12T01:12:04.539Z,60.27
2022-08-12T01:15:07.607Z,60.49
2022-08-12T01:18:11.276Z,60.71
2022-08-12T01:22:07.693Z,60.84
2022-08-12T01:25:16.341Z,61.14
2022-08-12T01:28:20.716Z,61.17
2022-08-12T01:31:23.996Z,61.26
2022-08-12T01:34:36.130Z,61.02
2022-08-12T01:37:46.227Z,61.05
2022-08-12T01:40:52.424Z,61.10
2022-08-12T01:44:00.525Z,61.19
2022-08-12T01:47:39.250Z,61.36
2022-08-12T01:50:54.581Z,61.41
2022-08-12T01:54:09.549Z,61.51
2022-08-12T01:57:58.524Z,61.57
2022-08-12T02:01:12.022Z,61.62
2022-08-12T02:05:15.966Z,61.68
2022-08-12T02:09:05.108Z,61.92
2022-08-12T02:12:08.544Z,62.18
2022-08-12T02:15:41.591Z,62.62
2022-08-12T02:18:55.758Z,62.58
2022-08-12T02:22:05.063Z,62.93
2022-08-12T02:25:15.911Z,62.83
2022-08-12T02:28:18.823Z,63.03
2022-08-12T02:31:27.932Z,62.98
2022-08-12T02:34:31.689Z,63.33
2022-08-12T02:37:36.597Z,63.51
2022-08-12T02:40:43.101Z,63.41
2022-08-12T02:43:51.496Z,63.49
2022-08-12T02:46:56.809Z,63.73
2022-08-12T02:50:03.651Z,63.70
2022-08-12T02:53:07.689Z,63.89
2022-08-12T02:56:12.485Z,64.36
2022-08-12T02:59:16.859Z,64.24
2022-08-12T03:02:27.432Z,64.58
2022-08-12T03:05:44.125Z,64.75
2022-08-12T03:08:53.837Z,65.06
2022-08-12T03:12:05.153Z,65.45
2022-08-12T03:15:12.789Z,65.77
2022-08-12T03:18:26.275Z,65.80
2022-08-12T03:21:53.021Z,65.73
2022-08-12T03:25:05.422Z,65.61
2022-08-12T03:28:23.861Z,65.64
2022-08-12T03:31:30.090Z,65.63
2022-08-12T03:34:35.557Z,65.94
2022-08-12T03:37:40.153Z,66.01
2022-08-12T03:41:27.546Z,66.04
2022-08-12T03:45:11.796Z,66.31
2022-08-12T03:48:33.607Z,66.35
2022-08-12T03:51:55.084Z,66.30
2022-08-12T03:55:16.774Z,66.53
2022-08-12T03:58:39.410Z,66.61
2022-08-12T04:01:42.678Z,66.77
2022-08-12T04:04:46.456Z,66.67
2022-08-12T04:07:58.098Z,66.57
2022-08-12T04:11:19.973Z,66.59
2022-08-12T04:14:22.418Z,66.51
2022-08-12T04:17:28.008Z,66.44
2022-08-12T04:20:31.956Z,66.43
2022-08-12T04:23:35.400Z,66.40
2022-08-12T04:26:41.254Z,66.22
2022-08-12T04:30:22.378Z,67.68
2022-08-12T04:33:13.719Z,66.95
2022-08-12T04:36:16.523Z,67.12
2022-08-12T04:39:20.542Z,67.54
2022-08-12T04:42:25.835Z,67.45
2022-08-12T04:45:34.604Z,67.47
2022-08-12T04:48:37.828Z,67.52
2022-08-12T04:51:40.742Z,66.77
2022-08-12T04:54:44.223Z,66.21
2022-08-12T04:57:46.995Z,65.37
2022-08-12T05:00:50.151Z,65.24
2022-08-12T05:03:53.142Z,65.35
2022-08-12T05:06:56.015Z,64.70
2022-08-12T05:10:00.403Z,64.34
2022-08-12T05:13:14.460Z,64.13
2022-08-12T05:16:17.164Z,63.43
2022-08-12T05:19:30.359Z,63.12
2022-08-12T05:22:36.864Z,62.50
2022-08-12T05:25:43.337Z,62.71
2022-08-12T05:28:46.319Z,61.79
2022-08-12T05:31:58.426Z,61.55
2022-08-12T05:35:06.629Z,61.35
2022-08-12T05:38:29.988Z,61.82
2022-08-12T05:41:35.325Z,61.63
2022-08-12T05:44:38.257Z,60.83
2022-08-12T05:47:53.419Z,60.83
2022-08-12T05:50:57.609Z,60.74
2022-08-12T05:54:00.258Z,60.46
2022-08-12T05:57:03.715Z,60.15
2022-08-12T06:00:07.209Z,59.85
2022-08-12T06:03:17.571Z,59.77
2022-08-12T06:06:27.395Z,59.62
2022-08-12T06:09:32.583Z,59.01
2022-08-12T06:12:35.385Z,59.09
2022-08-12T06:15:38.087Z,58.17
2022-08-12T06:18:42.222Z,58.17
2022-08-12T06:21:48.777Z,56.63
2022-08-12T06:24:53.384Z,57.09
2022-08-12T06:28:07.380Z,56.14
2022-08-12T06:31:26.969Z,56.44
2022-08-12T06:35:25.026Z,55.34
2022-08-12T06:37:57.396Z,55.48
2022-08-12T06:41:19.755Z,55.37
2022-08-12T06:44:23.274Z,55.12
2022-08-12T06:47:25.778Z,54.34
2022-08-12T06:50:29.201Z,53.63
2022-08-12T06:53:33.318Z,53.36
2022-08-12T06:59:59.299Z,51.53
2022-08-12T07:03:16.458Z,49.91
2022-08-12T07:06:26.757Z,50.18
2022-08-12T07:10:04.805Z,50.40
2022-08-12T07:12:56.745Z,48.66
2022-08-12T07:15:59.593Z,47.15
2022-08-12T07:19:04.267Z,46.54
2022-08-12T07:22:07.707Z,44.12
2022-08-12T07:25:28.820Z,45.45
2022-08-12T07:28:34.939Z,42.75
2022-08-12T07:31:38.179Z,42.92
2022-08-12T07:34:43.505Z,43.04
2022-08-12T07:37:53.251Z,42.92
2022-08-12T07:40:56.187Z,42.20
2022-08-12T07:44:05.160Z,42.40
2022-08-12T07:47:08.589Z,39.76
2022-08-12T07:50:25.347Z,40.57
2022-08-12T07:53:28.142Z,39.31
2022-08-12T07:56:31.520Z,39.63
2022-08-12T07:59:35.884Z,38.14
2022-08-12T08:02:38.431Z,38.97
2022-08-12T08:05:46.411Z,36.32
2022-08-12T08:08:49.065Z,36.37
2022-08-12T08:12:18.558Z,34.14
2022-08-12T08:15:44.526Z,34.42
2022-08-12T08:18:47.444Z,33.87
2022-08-12T08:21:51.125Z,35.30
2022-08-12T08:24:57.724Z,33.06
2022-08-12T08:28:14.614Z,33.79
2022-08-12T08:31:17.378Z,33.84
2022-08-12T08:34:33.980Z,30.96
2022-08-12T08:37:46.217Z,32.02
2022-08-12T08:41:09.842Z,33.78
2022-08-12T08:44:12.698Z,33.93
2022-08-12T08:47:15.213Z,31.39
2022-08-12T08:50:18.763Z,29.38
2022-08-12T08:53:21.468Z,30.43
2022-08-12T08:56:24.753Z,31.14
2022-08-12T08:59:28.138Z,32.16
2022-08-12T09:02:30.877Z,30.87
2022-08-12T09:06:02.524Z,28.36
2022-08-12T09:08:56.917Z,28.61
2022-08-12T09:12:27.445Z,26.33
2022-08-12T09:15:35.743Z,27.34
2022-08-12T09:18:41.297Z,25.23
2022-08-12T09:21:54.802Z,25.57
2022-08-12T09:24:59.755Z,24.60
2022-08-12T09:28:18.148Z,26.66
2022-08-12T09:32:07.378Z,27.12
2022-08-12T09:34:50.558Z,27.35
2022-08-12T09:37:58.845Z,26.52
2022-08-12T09:42:34.958Z,27.80
2022-08-12T09:44:48.392Z,30.11
2022-08-12T09:48:19.922Z,31.19
2022-08-12T09:51:38.350Z,28.51
2022-08-12T09:54:48.484Z,27.33
2022-08-12T09:58:08.180Z,24.65
2022-08-12T10:01:23.425Z,24.03
2022-08-12T10:04:26.998Z,27.35
2022-08-12T10:07:39.427Z,26.54
2022-08-12T10:11:21.887Z,27.69
2022-08-12T10:14:34.218Z,29.49
2022-08-12T10:18:05.800Z,29.17
2022-08-12T10:21:09.466Z,26.95
2022-08-12T10:24:20.027Z,29.80
2022-08-12T10:28:04.499Z,28.99
2022-08-12T10:31:05.596Z,27.41
2022-08-12T10:34:23.375Z,23.26
2022-08-12T10:38:33.599Z,23.82
2022-08-12T10:41:12.318Z,29.13
2022-08-12T10:44:22.417Z,30.95
2022-08-12T10:48:20.298Z,26.03
2022-08-12T10:51:02.279Z,23.53
2022-08-12T10:54:06.720Z,20.98
2022-08-12T10:57:18.574Z,23.01
2022-08-12T11:00:55.192Z,25.95
2022-08-12T11:04:24.856Z,28.54
2022-08-12T11:08:37.189Z,27.68
2022-08-12T11:11:03.062Z,26.07
2022-08-12T11:14:48.432Z,25.26
2022-08-12T11:17:43.374Z,26.16
2022-08-12T11:21:00.291Z,27.10
2022-08-12T11:24:08.567Z,27.93
2022-08-12T11:27:31.392Z,26.95
2022-08-12T11:30:34.968Z,27.96
2022-08-12T11:34:04.970Z,30.68
2022-08-12T11:37:24.783Z,30.09
2022-08-12T11:40:30.365Z,29.96
2022-08-12T11:43:50.171Z,28.75
2022-08-12T11:46:58.966Z,28.73
2022-08-12T11:50:02.873Z,26.86
2022-08-12T11:53:58.197Z,25.68
2022-08-12T11:56:38.806Z,24.34
2022-08-12T12:03:17.321Z,23.59
2022-08-12T12:06:23.169Z,25.18
2022-08-12T12:09:26.990Z,24.53
2022-08-12T12:12:50.626Z,22.39
2022-08-12T12:15:53.443Z,21.02
2022-08-12T12:18:56.543Z,20.44
2022-08-12T12:21:59.097Z,17.77
2022-08-12T12:25:12.533Z,18.08
2022-08-12T12:28:36.686Z,20.19
2022-08-12T12:32:08.929Z,19.44
2022-08-12T12:35:13.822Z,18.15
2022-08-12T12:38:25.762Z,19.45
2022-08-12T12:42:43.207Z,21.48
2022-08-12T12:44:53.740Z,19.35
2022-08-12T12:48:00.387Z,17.92
2022-08-12T12:51:48.550Z,17.23
2022-08-12T12:54:52.557Z,16.43
2022-08-12T12:58:00.727Z,18.52
2022-08-12T13:01:27.833Z,17.57
2022-08-12T13:04:34.918Z,21.33
2022-08-12T13:07:54.380Z,24.13
2022-08-12T13:11:06.214Z,26.00
2022-08-12T13:14:12.916Z,26.93
2022-08-12T13:18:01.931Z,28.63
2022-08-12T13:20:59.292Z,30.54
2022-08-12T13:24:09.952Z,30.66
2022-08-12T13:27:18.695Z,30.85
2022-08-12T13:30:24.936Z,31.20
2022-08-12T13:33:29.258Z,30.57
2022-08-12T13:36:52.007Z,29.88
2022-08-12T13:39:55.015Z,28.63
2022-08-12T13:43:02.039Z,24.90
2022-08-12T13:46:08.305Z,22.93
2022-08-12T13:49:17.466Z,18.91
2022-08-12T13:52:39.739Z,18.54
2022-08-12T13:55:59.905Z,17.88
2022-08-12T13:59:08.113Z,15.23
2022-08-12T14:02:13.350Z,15.75
2022-08-12T14:05:31.118Z,17.44
2022-08-12T14:08:40.985Z,15.82
2022-08-12T14:11:58.701Z,14.31
2022-08-12T14:15:02.228Z,14.27
2022-08-12T14:18:15.513Z,13.73
2022-08-12T14:21:22.523Z,14.01
2022-08-12T14:24:27.150Z,15.48
2022-08-12T14:28:02.588Z,17.80
2022-08-12T14:31:05.959Z,18.37
2022-08-12T14:34:28.372Z,17.32
2022-08-12T14:37:56.407Z,16.51
2022-08-12T14:41:00.150Z,19.46
2022-08-12T14:44:56.960Z,23.34
2022-08-12T14:47:29.475Z,25.26
2022-08-12T14:51:30.391Z,26.26
2022-08-12T14:57:35.741Z,26.66
2022-08-12T15:01:15.666Z,26.43
2022-08-12T15:04:22.500Z,26.15
2022-08-12T15:07:33.889Z,25.73
2022-08-12T15:10:53.987Z,25.44
2022-08-12T15:13:56.669Z,26.08
2022-08-12T15:17:00.631Z,27.04
2022-08-12T15:20:31.725Z,27.60
2022-08-12T15:23:32.953Z,27.93
2022-08-12T15:26:48.090Z,27.99
2022-08-12T15:29:53.282Z,28.83
2022-08-12T15:32:59.251Z,28.96
2022-08-12T15:36:03.084Z,28.65
2022-08-12T15:39:05.985Z,29.50
2022-08-12T15:42:20.645Z,31.77
2022-08-12T15:45:24.131Z,31.81
2022-08-12T15:48:30.555Z,32.68
2022-08-12T15:51:58.774Z,33.79
2022-08-12T15:55:05.027Z,34.11
2022-08-12T15:58:09.334Z,34.31
2022-08-12T16:01:17.378Z,34.67
2022-08-12T16:04:20.296Z,34.72
2022-08-12T16:07:29.680Z,34.99
2022-08-12T16:10:33.689Z,34.81
2022-08-12T16:13:36.457Z,35.19
2022-08-12T16:16:39.643Z,35.23
2022-08-12T16:20:03.769Z,35.31
2022-08-12T16:23:26.957Z,34.38
2022-08-12T16:26:35.817Z,34.93
2022-08-12T16:29:53.232Z,34.43
2022-08-12T16:33:08.829Z,33.67
2022-08-12T16:36:18.714Z,33.84
2022-08-12T16:39:22.599Z,35.05
2022-08-12T16:42:28.458Z,35.48
2022-08-12T16:46:23.861Z,35.50
2022-08-12T16:48:57.694Z,35.71
2022-08-12T16:52:02.529Z,35.74
2022-08-12T16:55:12.995Z,35.85
2022-08-12T16:58:28.104Z,35.68
2022-08-12T17:01:36.718Z,35.58
2022-08-12T17:04:52.734Z,36.07
2022-08-12T17:07:56.607Z,36.25
2022-08-12T17:11:00.104Z,36.20
2022-08-12T17:14:03.742Z,36.38
2022-08-12T17:17:09.799Z,36.30
2022-08-12T17:20:34.020Z,36.53
2022-08-12T17:23:48.679Z,36.60
2022-08-12T17:26:58.572Z,36.57
2022-08-12T17:30:04.800Z,36.55
2022-08-12T17:33:13.952Z,36.65
2022-08-12T17:36:21.806Z,36.83
2022-08-12T17:40:06.361Z,36.96
2022-08-12T17:42:51.753Z,37.15
2022-08-12T17:45:56.150Z,37.49
2022-08-12T17:49:18.831Z,37.85
2022-08-12T17:52:22.875Z,37.81
2022-08-12T17:55:43.037Z,38.04
2022-08-12T17:58:58.059Z,38.47
2022-08-12T18:02:02.645Z,39.15
2022-08-12T18:05:10.664Z,39.21
2022-08-12T18:08:15.404Z,39.56
2022-08-12T18:12:04.162Z,39.70
2022-08-12T18:15:09.102Z,40.23
2022-08-12T18:18:17.351Z,40.10
2022-08-12T18:21:22.448Z,40.21
2022-08-12T18:24:29.753Z,40.36
2022-08-12T18:27:44.002Z,40.55
2022-08-12T18:30:52.248Z,41.04
2022-08-12T18:34:06.356Z,40.46
2022-08-12T18:37:28.755Z,40.49
2022-08-12T18:40:57.660Z,41.01
2022-08-12T18:44:07.832Z,41.16
2022-08-12T18:47:13.523Z,41.27
2022-08-12T18:50:16.698Z,41.56
2022-08-12T18:54:05.040Z,41.60
2022-08-12T18:56:45.508Z,42.22
2022-08-12T19:00:01.958Z,42.84
2022-08-12T19:03:39.162Z,42.92
2022-08-12T19:06:38.293Z,43.63
2022-08-12T19:09:58.273Z,43.77
2022-08-12T19:13:24.770Z,43.83
2022-08-12T19:16:28.290Z,44.65
2022-08-12T19:19:37.450Z,45.36
2022-08-12T19:22:57.779Z,44.94
2022-08-12T19:26:10.584Z,46.18
2022-08-12T19:29:20.001Z,45.17
2022-08-12T19:32:29.601Z,45.94
2022-08-12T19:36:07.364Z,46.10
2022-08-12T19:38:57.577Z,46.66
2022-08-12T19:42:01.898Z,46.64
2022-08-12T19:45:12.222Z,46.89
2022-08-12T19:48:18.881Z,48.06
2022-08-12T19:51:35.792Z,47.67
2022-08-12T19:54:38.806Z,48.56
2022-08-12T19:58:02.195Z,49.05
2022-08-12T20:01:11.340Z,49.69
2022-08-12T20:04:14.578Z,50.13
2022-08-12T20:07:24.303Z,50.05
2022-08-12T20:10:35.366Z,50.12
2022-08-12T20:13:42.019Z,50.37
2022-08-12T20:16:53.013Z,50.30
2022-08-12T20:20:17.103Z,50.44
2022-08-12T20:23:23.611Z,50.60
2022-08-12T20:26:43.809Z,50.82
2022-08-12T20:29:47.164Z,50.70
2022-08-12T20:32:59.189Z,50.68
2022-08-12T20:36:14.432Z,50.77
2022-08-12T20:39:53.424Z,50.57
2022-08-12T20:42:53.702Z,51.02
2022-08-12T20:45:58.045Z,51.35
2022-08-12T20:49:14.811Z,51.84
2022-08-12T20:52:22.496Z,52.04
2022-08-12T20:55:42.430Z,51.55
2022-08-12T20:58:45.683Z,50.51
2022-08-12T21:01:49.382Z,49.86
2022-08-12T21:05:19.604Z,49.67
2022-08-12T21:08:26.403Z,49.70
2022-08-12T21:11:30.306Z,49.90
2022-08-12T21:14:39.852Z,50.13
2022-08-12T21:18:10.843Z,50.43
2022-08-12T21:21:46.925Z,50.68
2022-08-12T21:24:50.174Z,50.61
2022-08-12T21:27:59.043Z,50.79
2022-08-12T21:32:34.952Z,50.91
2022-08-12T21:34:29.243Z,51.11
2022-08-12T21:37:37.449Z,51.55
2022-08-12T21:40:52.130Z,51.81
2022-08-12T21:44:01.569Z,51.98
2022-08-12T21:47:20.097Z,53.55
2022-08-12T21:50:29.074Z,53.85
2022-08-12T21:54:07.706Z,53.85
2022-08-12T21:56:54.600Z,55.39
2022-08-12T21:59:57.531Z,55.85
2022-08-12T22:04:01.300Z,56.88
2022-08-12T22:06:43.802Z,57.56
2022-08-12T22:09:47.019Z,58.11
2022-08-12T22:13:01.104Z,58.32
2022-08-12T22:16:04.194Z,58.35
2022-08-12T22:19:07.384Z,58.64
2022-08-12T22:22:09.936Z,58.10
2022-08-12T22:25:16.721Z,57.75
2022-08-12T22:28:41.756Z,57.02
2022-08-12T22:31:44.539Z,56.92
2022-08-12T22:35:08.309Z,58.10
2022-08-12T22:38:19.848Z,57.69
2022-08-12T22:41:42.596Z,56.97
2022-08-12T22:45:03.847Z,56.20
2022-08-12T22:48:06.445Z,56.02
2022-08-12T22:51:10.838Z,55.99
2022-08-12T22:54:36.852Z,55.80
2022-08-12T22:57:49.049Z,55.85
2022-08-12T23:00:57.025Z,55.43
2022-08-12T23:04:00.436Z,55.36
2022-08-12T23:07:07.278Z,55.44
2022-08-12T23:10:10.445Z,55.53
2022-08-12T23:13:44.025Z,56.01
2022-08-12T23:16:51.653Z,56.30
2022-08-12T23:19:54.970Z,56.90
2022-08-12T23:23:03.021Z,57.18
2022-08-12T23:26:09.129Z,57.75
2022-08-12T23:29:25.883Z,58.25
2022-08-12T23:32:38.092Z,58.68
2022-08-12T23:35:53.448Z,59.75
2022-08-12T23:40:13.469Z,60.26
2022-08-12T23:42:44.219Z,60.73
2022-08-12T23:46:00.815Z,60.99
2022-08-12T23:49:04.144Z,60.42
2022-08-12T23:52:28.552Z,60.55
2022-08-12T23:55:41.016Z,60.91
2022-08-12T23:58:53.755Z,61.09
